sensor_id;sensor_type;location;lat;lon;timestamp;P1;durP1;ratioP1;P2;durP2;ratioP2
46330;SDS011;32049;52.346;4.870;2022-07-22T00:00:15;6.17;;;1.60;;
46330;SDS011;32049;52.346;4.870;2022-07-22T00:03:03;5.43;;;1.60;;
46330;SDS011;32049;52.346;4.870;2022-07-22T00:05:50;4.43;;;1.70;;
46330;SDS011;32049;52.346;4.870;2022-07-22T00:08:38;7.43;;;1.80;;
46330;SDS011;32049;52.346;4.870;2022-07-22T00:11:25;8.30;;;2.20;;
46330;SDS011;32049;52.346;4.870;2022-07-22T00:14:13;7.73;;;2.20;;
46330;SDS011;32049;52.346;4.870;2022-07-22T00:17:00;6.10;;;2.03;;
46330;SDS011;32049;52.346;4.870;2022-07-22T00:19:48;7.47;;;1.73;;
46330;SDS011;32049;52.346;4.870;2022-07-22T00:22:35;11.00;;;2.63;;
46330;SDS011;32049;52.346;4.870;2022-07-22T00:25:23;4.53;;;1.93;;
46330;SDS011;32049;52.346;4.870;2022-07-22T00:28:11;8.57;;;2.33;;
46330;SDS011;32049;52.346;4.870;2022-07-22T00:30:59;7.43;;;2.30;;
46330;SDS011;32049;52.346;4.870;2022-07-22T00:33:46;7.83;;;2.67;;
46330;SDS011;32049;52.346;4.870;2022-07-22T00:36:34;13.27;;;2.63;;
46330;SDS011;32049;52.346;4.870;2022-07-22T00:39:21;9.93;;;2.63;;
46330;SDS011;32049;52.346;4.870;2022-07-22T00:42:09;8.57;;;2.30;;
46330;SDS011;32049;52.346;4.870;2022-07-22T00:44:57;8.50;;;2.30;;
46330;SDS011;32049;52.346;4.870;2022-07-22T00:47:46;11.17;;;2.77;;
46330;SDS011;32049;52.346;4.870;2022-07-22T00:50:34;6.50;;;2.20;;
46330;SDS011;32049;52.346;4.870;2022-07-22T00:53:21;9.93;;;2.10;;
46330;SDS011;32049;52.346;4.870;2022-07-22T00:56:09;7.37;;;2.33;;
46330;SDS011;32049;52.346;4.870;2022-07-22T00:58:59;15.27;;;2.27;;
46330;SDS011;32049;52.346;4.870;2022-07-22T01:01:47;7.80;;;1.83;;
46330;SDS011;32049;52.346;4.870;2022-07-22T01:04:35;7.20;;;1.80;;
46330;SDS011;32049;52.346;4.870;2022-07-22T01:07:23;7.47;;;2.17;;
46330;SDS011;32049;52.346;4.870;2022-07-22T01:10:10;7.60;;;2.23;;
46330;SDS011;32049;52.346;4.870;2022-07-22T01:12:57;7.30;;;2.30;;
46330;SDS011;32049;52.346;4.870;2022-07-22T01:15:45;9.80;;;2.57;;
46330;SDS011;32049;52.346;4.870;2022-07-22T01:18:32;10.47;;;2.00;;
46330;SDS011;32049;52.346;4.870;2022-07-22T01:21:21;9.53;;;2.57;;
46330;SDS011;32049;52.346;4.870;2022-07-22T01:24:08;6.90;;;2.60;;
46330;SDS011;32049;52.346;4.870;2022-07-22T01:26:56;7.03;;;2.33;;
46330;SDS011;32049;52.346;4.870;2022-07-22T01:29:43;7.03;;;2.30;;
46330;SDS011;32049;52.346;4.870;2022-07-22T01:32:31;7.07;;;2.33;;
46330;SDS011;32049;52.346;4.870;2022-07-22T01:35:18;8.93;;;2.53;;
46330;SDS011;32049;52.346;4.870;2022-07-22T01:38:06;11.07;;;2.10;;
46330;SDS011;32049;52.346;4.870;2022-07-22T01:40:53;9.97;;;2.30;;
46330;SDS011;32049;52.346;4.870;2022-07-22T01:43:41;10.97;;;2.33;;
46330;SDS011;32049;52.346;4.870;2022-07-22T01:46:28;9.67;;;2.53;;
46330;SDS011;32049;52.346;4.870;2022-07-22T01:49:16;10.57;;;2.50;;
46330;SDS011;32049;52.346;4.870;2022-07-22T01:52:03;9.40;;;2.63;;
46330;SDS011;32049;52.346;4.870;2022-07-22T01:54:53;5.93;;;1.80;;
46330;SDS011;32049;52.346;4.870;2022-07-22T01:57:40;7.60;;;2.17;;
46330;SDS011;32049;52.346;4.870;2022-07-22T02:00:28;8.13;;;1.90;;
46330;SDS011;32049;52.346;4.870;2022-07-22T02:03:15;6.43;;;1.87;;
46330;SDS011;32049;52.346;4.870;2022-07-22T02:06:02;6.87;;;1.90;;
46330;SDS011;32049;52.346;4.870;2022-07-22T02:08:50;6.70;;;2.13;;
46330;SDS011;32049;52.346;4.870;2022-07-22T02:11:38;10.53;;;2.13;;
46330;SDS011;32049;52.346;4.870;2022-07-22T02:14:26;8.70;;;2.37;;
46330;SDS011;32049;52.346;4.870;2022-07-22T02:17:13;9.63;;;1.73;;
46330;SDS011;32049;52.346;4.870;2022-07-22T02:20:02;9.57;;;1.90;;
46330;SDS011;32049;52.346;4.870;2022-07-22T02:22:51;5.37;;;1.80;;
46330;SDS011;32049;52.346;4.870;2022-07-22T02:25:39;4.93;;;1.43;;
46330;SDS011;32049;52.346;4.870;2022-07-22T02:28:28;6.17;;;1.47;;
46330;SDS011;32049;52.346;4.870;2022-07-22T02:31:15;6.53;;;2.00;;
46330;SDS011;32049;52.346;4.870;2022-07-22T02:34:02;9.53;;;2.00;;
46330;SDS011;32049;52.346;4.870;2022-07-22T02:36:50;11.93;;;2.40;;
46330;SDS011;32049;52.346;4.870;2022-07-22T02:39:38;8.60;;;1.60;;
46330;SDS011;32049;52.346;4.870;2022-07-22T02:42:26;11.23;;;1.77;;
46330;SDS011;32049;52.346;4.870;2022-07-22T02:45:13;5.77;;;1.90;;
46330;SDS011;32049;52.346;4.870;2022-07-22T02:48:01;10.33;;;1.90;;
46330;SDS011;32049;52.346;4.870;2022-07-22T02:50:49;7.03;;;1.70;;
46330;SDS011;32049;52.346;4.870;2022-07-22T02:53:36;7.57;;;1.83;;
46330;SDS011;32049;52.346;4.870;2022-07-22T02:56:25;7.87;;;2.10;;
46330;SDS011;32049;52.346;4.870;2022-07-22T02:59:12;7.87;;;1.60;;
46330;SDS011;32049;52.346;4.870;2022-07-22T03:02:00;7.27;;;1.73;;
46330;SDS011;32049;52.346;4.870;2022-07-22T03:04:47;9.77;;;1.90;;
46330;SDS011;32049;52.346;4.870;2022-07-22T03:07:34;7.77;;;2.10;;
46330;SDS011;32049;52.346;4.870;2022-07-22T03:10:23;6.67;;;1.60;;
46330;SDS011;32049;52.346;4.870;2022-07-22T03:13:11;4.87;;;1.57;;
46330;SDS011;32049;52.346;4.870;2022-07-22T03:15:58;4.77;;;1.30;;
46330;SDS011;32049;52.346;4.870;2022-07-22T03:18:46;9.40;;;1.33;;
46330;SDS011;32049;52.346;4.870;2022-07-22T03:21:33;10.63;;;2.37;;
46330;SDS011;32049;52.346;4.870;2022-07-22T03:24:21;8.27;;;1.57;;
46330;SDS011;32049;52.346;4.870;2022-07-22T03:27:08;4.27;;;1.33;;
46330;SDS011;32049;52.346;4.870;2022-07-22T03:29:56;4.70;;;1.27;;
46330;SDS011;32049;52.346;4.870;2022-07-22T03:32:43;4.23;;;1.43;;
46330;SDS011;32049;52.346;4.870;2022-07-22T03:35:37;4.30;;;1.40;;
46330;SDS011;32049;52.346;4.870;2022-07-22T03:38:24;5.57;;;1.60;;
46330;SDS011;32049;52.346;4.870;2022-07-22T03:41:12;5.57;;;1.67;;
46330;SDS011;32049;52.346;4.870;2022-07-22T03:43:59;7.33;;;1.80;;
46330;SDS011;32049;52.346;4.870;2022-07-22T03:46:47;6.70;;;1.63;;
46330;SDS011;32049;52.346;4.870;2022-07-22T03:49:35;3.63;;;1.10;;
46330;SDS011;32049;52.346;4.870;2022-07-22T03:52:22;6.13;;;2.13;;
46330;SDS011;32049;52.346;4.870;2022-07-22T03:55:10;8.70;;;2.43;;
46330;SDS011;32049;52.346;4.870;2022-07-22T03:57:58;8.53;;;1.67;;
46330;SDS011;32049;52.346;4.870;2022-07-22T04:00:45;7.63;;;1.73;;
46330;SDS011;32049;52.346;4.870;2022-07-22T04:03:32;4.03;;;1.57;;
46330;SDS011;32049;52.346;4.870;2022-07-22T04:06:19;3.53;;;1.33;;
46330;SDS011;32049;52.346;4.870;2022-07-22T04:09:06;7.17;;;1.90;;
46330;SDS011;32049;52.346;4.870;2022-07-22T04:11:54;5.10;;;1.60;;
46330;SDS011;32049;52.346;4.870;2022-07-22T04:14:41;6.63;;;1.43;;
46330;SDS011;32049;52.346;4.870;2022-07-22T04:17:29;3.17;;;1.23;;
46330;SDS011;32049;52.346;4.870;2022-07-22T04:20:16;8.93;;;1.47;;
46330;SDS011;32049;52.346;4.870;2022-07-22T04:23:04;6.10;;;2.17;;
46330;SDS011;32049;52.346;4.870;2022-07-22T04:25:51;5.60;;;1.13;;
46330;SDS011;32049;52.346;4.870;2022-07-22T04:28:39;4.83;;;1.53;;
46330;SDS011;32049;52.346;4.870;2022-07-22T04:31:27;3.83;;;1.00;;
46330;SDS011;32049;52.346;4.870;2022-07-22T04:34:15;5.33;;;1.63;;
46330;SDS011;32049;52.346;4.870;2022-07-22T04:37:03;5.20;;;1.57;;
46330;SDS011;32049;52.346;4.870;2022-07-22T04:39:51;6.73;;;1.53;;
46330;SDS011;32049;52.346;4.870;2022-07-22T04:42:39;3.57;;;1.00;;
46330;SDS011;32049;52.346;4.870;2022-07-22T04:45:26;7.70;;;1.20;;
46330;SDS011;32049;52.346;4.870;2022-07-22T04:48:14;2.87;;;1.00;;
46330;SDS011;32049;52.346;4.870;2022-07-22T04:51:02;4.07;;;1.20;;
46330;SDS011;32049;52.346;4.870;2022-07-22T04:53:50;5.60;;;1.13;;
46330;SDS011;32049;52.346;4.870;2022-07-22T04:56:37;7.40;;;1.30;;
46330;SDS011;32049;52.346;4.870;2022-07-22T04:59:24;3.90;;;1.20;;
46330;SDS011;32049;52.346;4.870;2022-07-22T05:02:12;2.63;;;1.07;;
46330;SDS011;32049;52.346;4.870;2022-07-22T05:04:59;3.93;;;1.40;;
46330;SDS011;32049;52.346;4.870;2022-07-22T05:07:47;5.43;;;1.07;;
46330;SDS011;32049;52.346;4.870;2022-07-22T05:10:34;5.87;;;1.50;;
46330;SDS011;32049;52.346;4.870;2022-07-22T05:13:22;5.93;;;1.40;;
46330;SDS011;32049;52.346;4.870;2022-07-22T05:16:10;4.63;;;1.10;;
46330;SDS011;32049;52.346;4.870;2022-07-22T05:18:57;4.07;;;1.00;;
46330;SDS011;32049;52.346;4.870;2022-07-22T05:21:45;3.63;;;1.00;;
46330;SDS011;32049;52.346;4.870;2022-07-22T05:24:33;6.67;;;1.53;;
46330;SDS011;32049;52.346;4.870;2022-07-22T05:27:20;6.37;;;1.43;;
46330;SDS011;32049;52.346;4.870;2022-07-22T05:30:08;5.50;;;1.53;;
46330;SDS011;32049;52.346;4.870;2022-07-22T05:32:56;5.57;;;1.10;;
46330;SDS011;32049;52.346;4.870;2022-07-22T05:35:43;5.50;;;1.30;;
46330;SDS011;32049;52.346;4.870;2022-07-22T05:38:31;3.73;;;1.10;;
46330;SDS011;32049;52.346;4.870;2022-07-22T05:41:20;4.93;;;1.33;;
46330;SDS011;32049;52.346;4.870;2022-07-22T05:44:08;8.27;;;1.90;;
46330;SDS011;32049;52.346;4.870;2022-07-22T05:46:55;12.30;;;2.13;;
46330;SDS011;32049;52.346;4.870;2022-07-22T05:49:43;4.20;;;1.40;;
46330;SDS011;32049;52.346;4.870;2022-07-22T05:52:31;7.00;;;1.53;;
46330;SDS011;32049;52.346;4.870;2022-07-22T05:55:19;3.77;;;1.53;;
46330;SDS011;32049;52.346;4.870;2022-07-22T05:58:06;5.90;;;1.23;;
46330;SDS011;32049;52.346;4.870;2022-07-22T06:00:54;5.43;;;1.90;;
46330;SDS011;32049;52.346;4.870;2022-07-22T06:03:42;5.20;;;1.33;;
46330;SDS011;32049;52.346;4.870;2022-07-22T06:06:29;5.33;;;1.70;;
46330;SDS011;32049;52.346;4.870;2022-07-22T06:09:17;5.27;;;1.40;;
46330;SDS011;32049;52.346;4.870;2022-07-22T06:12:05;5.60;;;1.47;;
46330;SDS011;32049;52.346;4.870;2022-07-22T06:14:52;7.03;;;1.40;;
46330;SDS011;32049;52.346;4.870;2022-07-22T06:17:40;5.03;;;1.00;;
46330;SDS011;32049;52.346;4.870;2022-07-22T06:20:27;6.97;;;1.60;;
46330;SDS011;32049;52.346;4.870;2022-07-22T06:23:15;2.87;;;1.00;;
46330;SDS011;32049;52.346;4.870;2022-07-22T06:26:02;3.57;;;0.93;;
46330;SDS011;32049;52.346;4.870;2022-07-22T06:28:50;6.97;;;1.17;;
46330;SDS011;32049;52.346;4.870;2022-07-22T06:31:37;5.27;;;1.10;;
46330;SDS011;32049;52.346;4.870;2022-07-22T06:34:25;3.43;;;1.10;;
46330;SDS011;32049;52.346;4.870;2022-07-22T06:37:12;3.20;;;1.03;;
46330;SDS011;32049;52.346;4.870;2022-07-22T06:40:00;4.73;;;1.20;;
46330;SDS011;32049;52.346;4.870;2022-07-22T06:42:47;4.93;;;1.17;;
46330;SDS011;32049;52.346;4.870;2022-07-22T06:45:35;4.77;;;1.40;;
46330;SDS011;32049;52.346;4.870;2022-07-22T06:48:22;6.07;;;1.20;;
46330;SDS011;32049;52.346;4.870;2022-07-22T06:51:10;4.50;;;1.23;;
46330;SDS011;32049;52.346;4.870;2022-07-22T06:53:58;4.17;;;1.10;;
46330;SDS011;32049;52.346;4.870;2022-07-22T06:56:46;3.63;;;0.90;;
46330;SDS011;32049;52.346;4.870;2022-07-22T06:59:33;3.60;;;0.97;;
46330;SDS011;32049;52.346;4.870;2022-07-22T07:02:21;5.77;;;1.40;;
46330;SDS011;32049;52.346;4.870;2022-07-22T07:05:08;3.40;;;1.13;;
46330;SDS011;32049;52.346;4.870;2022-07-22T07:08:05;5.77;;;1.10;;
46330;SDS011;32049;52.346;4.870;2022-07-22T07:10:53;4.10;;;1.20;;
46330;SDS011;32049;52.346;4.870;2022-07-22T07:13:40;4.53;;;1.83;;
46330;SDS011;32049;52.346;4.870;2022-07-22T07:16:28;3.13;;;1.20;;
46330;SDS011;32049;52.346;4.870;2022-07-22T07:19:16;4.27;;;1.33;;
46330;SDS011;32049;52.346;4.870;2022-07-22T07:22:03;1.97;;;0.90;;
46330;SDS011;32049;52.346;4.870;2022-07-22T07:24:52;6.63;;;1.20;;
46330;SDS011;32049;52.346;4.870;2022-07-22T07:27:40;2.50;;;1.00;;
46330;SDS011;32049;52.346;4.870;2022-07-22T07:30:27;3.93;;;1.03;;
46330;SDS011;32049;52.346;4.870;2022-07-22T07:33:15;5.83;;;0.93;;
46330;SDS011;32049;52.346;4.870;2022-07-22T07:36:03;7.93;;;1.33;;
46330;SDS011;32049;52.346;4.870;2022-07-22T07:38:52;6.47;;;1.30;;
46330;SDS011;32049;52.346;4.870;2022-07-22T07:41:40;6.07;;;1.03;;
46330;SDS011;32049;52.346;4.870;2022-07-22T07:44:27;4.37;;;0.90;;
46330;SDS011;32049;52.346;4.870;2022-07-22T07:47:15;3.30;;;1.00;;
46330;SDS011;32049;52.346;4.870;2022-07-22T07:50:05;4.40;;;1.00;;
46330;SDS011;32049;52.346;4.870;2022-07-22T07:52:55;13.47;;;1.83;;
46330;SDS011;32049;52.346;4.870;2022-07-22T07:55:43;4.27;;;1.47;;
46330;SDS011;32049;52.346;4.870;2022-07-22T07:58:30;7.63;;;1.20;;
46330;SDS011;32049;52.346;4.870;2022-07-22T08:01:24;4.53;;;0.73;;
46330;SDS011;32049;52.346;4.870;2022-07-22T08:04:32;1.93;;;0.83;;
46330;SDS011;32049;52.346;4.870;2022-07-22T08:07:27;1.52;;;1.00;;
46330;SDS011;32049;52.346;4.870;2022-07-22T08:10:17;4.23;;;1.10;;
46330;SDS011;32049;52.346;4.870;2022-07-22T08:13:25;6.40;;;0.90;;
46330;SDS011;32049;52.346;4.870;2022-07-22T08:16:12;5.50;;;0.80;;
46330;SDS011;32049;52.346;4.870;2022-07-22T08:22:03;3.47;;;0.70;;
46330;SDS011;32049;52.346;4.870;2022-07-22T08:24:52;3.17;;;1.30;;
46330;SDS011;32049;52.346;4.870;2022-07-22T08:27:41;3.13;;;0.80;;
46330;SDS011;32049;52.346;4.870;2022-07-22T08:30:29;0.90;;;0.70;;
46330;SDS011;32049;52.346;4.870;2022-07-22T08:33:16;6.07;;;1.00;;
46330;SDS011;32049;52.346;4.870;2022-07-22T08:36:04;2.30;;;0.90;;
46330;SDS011;32049;52.346;4.870;2022-07-22T08:38:52;2.87;;;0.80;;
46330;SDS011;32049;52.346;4.870;2022-07-22T08:41:40;3.73;;;1.10;;
46330;SDS011;32049;52.346;4.870;2022-07-22T08:44:31;2.17;;;0.80;;
46330;SDS011;32049;52.346;4.870;2022-07-22T08:47:22;2.80;;;0.83;;
46330;SDS011;32049;52.346;4.870;2022-07-22T08:50:28;1.90;;;0.80;;
46330;SDS011;32049;52.346;4.870;2022-07-22T08:53:17;1.70;;;0.83;;
46330;SDS011;32049;52.346;4.870;2022-07-22T08:56:05;2.50;;;0.80;;
46330;SDS011;32049;52.346;4.870;2022-07-22T08:58:52;2.27;;;1.03;;
46330;SDS011;32049;52.346;4.870;2022-07-22T09:06:28;1.83;;;0.80;;
46330;SDS011;32049;52.346;4.870;2022-07-22T09:09:32;1.33;;;0.83;;
46330;SDS011;32049;52.346;4.870;2022-07-22T09:12:21;4.10;;;1.17;;
46330;SDS011;32049;52.346;4.870;2022-07-22T09:15:09;4.53;;;0.90;;
46330;SDS011;32049;52.346;4.870;2022-07-22T09:17:57;3.00;;;1.13;;
46330;SDS011;32049;52.346;4.870;2022-07-22T09:20:50;2.60;;;0.90;;
46330;SDS011;32049;52.346;4.870;2022-07-22T09:23:45;1.70;;;0.80;;
46330;SDS011;32049;52.346;4.870;2022-07-22T09:26:36;4.57;;;1.00;;
46330;SDS011;32049;52.346;4.870;2022-07-22T09:29:25;3.93;;;1.27;;
46330;SDS011;32049;52.346;4.870;2022-07-22T09:32:22;5.83;;;1.10;;
46330;SDS011;32049;52.346;4.870;2022-07-22T09:35:11;2.07;;;0.90;;
46330;SDS011;32049;52.346;4.870;2022-07-22T09:38:03;1.37;;;0.93;;
46330;SDS011;32049;52.346;4.870;2022-07-22T09:40:52;3.77;;;1.33;;
46330;SDS011;32049;52.346;4.870;2022-07-22T09:43:40;4.93;;;1.20;;
46330;SDS011;32049;52.346;4.870;2022-07-22T09:46:35;5.37;;;1.23;;
46330;SDS011;32049;52.346;4.870;2022-07-22T09:49:29;3.37;;;1.10;;
46330;SDS011;32049;52.346;4.870;2022-07-22T09:52:21;5.68;;;1.10;;
46330;SDS011;32049;52.346;4.870;2022-07-22T09:55:09;5.77;;;0.80;;
46330;SDS011;32049;52.346;4.870;2022-07-22T09:57:57;6.07;;;1.00;;
46330;SDS011;32049;52.346;4.870;2022-07-22T10:00:45;2.00;;;0.90;;
46330;SDS011;32049;52.346;4.870;2022-07-22T10:03:34;1.70;;;0.87;;
46330;SDS011;32049;52.346;4.870;2022-07-22T10:06:24;3.03;;;0.90;;
46330;SDS011;32049;52.346;4.870;2022-07-22T10:09:12;1.57;;;0.80;;
46330;SDS011;32049;52.346;4.870;2022-07-22T10:12:02;3.90;;;1.07;;
46330;SDS011;32049;52.346;4.870;2022-07-22T10:14:50;2.13;;;0.80;;
46330;SDS011;32049;52.346;4.870;2022-07-22T10:17:41;2.73;;;1.00;;
46330;SDS011;32049;52.346;4.870;2022-07-22T10:20:31;1.87;;;0.70;;
46330;SDS011;32049;52.346;4.870;2022-07-22T10:23:19;1.97;;;0.90;;
46330;SDS011;32049;52.346;4.870;2022-07-22T10:26:07;2.53;;;0.80;;
46330;SDS011;32049;52.346;4.870;2022-07-22T10:28:55;1.80;;;0.87;;
46330;SDS011;32049;52.346;4.870;2022-07-22T10:32:21;1.98;;;0.77;;
46330;SDS011;32049;52.346;4.870;2022-07-22T10:37:59;2.30;;;0.70;;
46330;SDS011;32049;52.346;4.870;2022-07-22T10:40:49;3.87;;;1.10;;
46330;SDS011;32049;52.346;4.870;2022-07-22T10:49:38;3.20;;;1.00;;
46330;SDS011;32049;52.346;4.870;2022-07-22T10:52:32;2.50;;;0.90;;
46330;SDS011;32049;52.346;4.870;2022-07-22T11:01:23;4.50;;;1.33;;
46330;SDS011;32049;52.346;4.870;2022-07-22T11:04:14;4.70;;;1.03;;
46330;SDS011;32049;52.346;4.870;2022-07-22T11:13:05;4.43;;;1.10;;
46330;SDS011;32049;52.346;4.870;2022-07-22T11:16:17;3.43;;;0.90;;
46330;SDS011;32049;52.346;4.870;2022-07-22T11:19:11;4.13;;;1.27;;
46330;SDS011;32049;52.346;4.870;2022-07-22T11:22:00;3.30;;;1.00;;
46330;SDS011;32049;52.346;4.870;2022-07-22T11:24:53;5.97;;;1.00;;
46330;SDS011;32049;52.346;4.870;2022-07-22T11:27:40;2.57;;;1.20;;
46330;SDS011;32049;52.346;4.870;2022-07-22T11:30:38;4.43;;;1.40;;
46330;SDS011;32049;52.346;4.870;2022-07-22T11:33:25;2.17;;;1.40;;
46330;SDS011;32049;52.346;4.870;2022-07-22T11:36:13;5.83;;;1.70;;
46330;SDS011;32049;52.346;4.870;2022-07-22T11:39:01;2.90;;;1.03;;
46330;SDS011;32049;52.346;4.870;2022-07-22T11:41:50;5.20;;;1.43;;
46330;SDS011;32049;52.346;4.870;2022-07-22T11:44:38;3.37;;;1.20;;
46330;SDS011;32049;52.346;4.870;2022-07-22T11:47:26;4.67;;;1.10;;
46330;SDS011;32049;52.346;4.870;2022-07-22T11:50:14;2.07;;;0.97;;
46330;SDS011;32049;52.346;4.870;2022-07-22T11:53:02;7.00;;;1.23;;
46330;SDS011;32049;52.346;4.870;2022-07-22T11:55:50;6.43;;;1.20;;
46330;SDS011;32049;52.346;4.870;2022-07-22T11:58:39;4.40;;;1.60;;
46330;SDS011;32049;52.346;4.870;2022-07-22T12:01:31;4.23;;;1.30;;
46330;SDS011;32049;52.346;4.870;2022-07-22T12:04:22;4.60;;;1.40;;
46330;SDS011;32049;52.346;4.870;2022-07-22T12:07:11;4.00;;;1.30;;
46330;SDS011;32049;52.346;4.870;2022-07-22T12:09:59;3.30;;;1.80;;
46330;SDS011;32049;52.346;4.870;2022-07-22T12:12:49;3.77;;;1.87;;
46330;SDS011;32049;52.346;4.870;2022-07-22T12:15:36;5.83;;;1.53;;
46330;SDS011;32049;52.346;4.870;2022-07-22T12:18:38;6.80;;;1.77;;
46330;SDS011;32049;52.346;4.870;2022-07-22T12:21:27;3.00;;;1.30;;
46330;SDS011;32049;52.346;4.870;2022-07-22T12:24:17;3.97;;;1.57;;
46330;SDS011;32049;52.346;4.870;2022-07-22T12:30:50;8.00;;;1.73;;
46330;SDS011;32049;52.346;4.870;2022-07-22T12:33:52;6.63;;;1.90;;
46330;SDS011;32049;52.346;4.870;2022-07-22T12:36:46;3.77;;;1.77;;
46330;SDS011;32049;52.346;4.870;2022-07-22T12:40:07;3.90;;;1.73;;
46330;SDS011;32049;52.346;4.870;2022-07-22T12:47:37;4.27;;;1.63;;
46330;SDS011;32049;52.346;4.870;2022-07-22T12:51:19;3.63;;;1.60;;
46330;SDS011;32049;52.346;4.870;2022-07-22T12:54:37;4.43;;;1.27;;
46330;SDS011;32049;52.346;4.870;2022-07-22T12:57:47;4.33;;;1.70;;
46330;SDS011;32049;52.346;4.870;2022-07-22T13:00:51;3.47;;;1.30;;
46330;SDS011;32049;52.346;4.870;2022-07-22T13:03:44;4.17;;;1.67;;
46330;SDS011;32049;52.346;4.870;2022-07-22T13:06:51;6.00;;;1.40;;
46330;SDS011;32049;52.346;4.870;2022-07-22T13:10:08;4.50;;;1.70;;
46330;SDS011;32049;52.346;4.870;2022-07-22T13:17:23;7.73;;;1.97;;
46330;SDS011;32049;52.346;4.870;2022-07-22T13:20:56;6.13;;;1.50;;
46330;SDS011;32049;52.346;4.870;2022-07-22T13:24:08;4.93;;;1.97;;
46330;SDS011;32049;52.346;4.870;2022-07-22T13:27:12;4.55;;;1.67;;
46330;SDS011;32049;52.346;4.870;2022-07-22T13:30:00;2.28;;;1.55;;
46330;SDS011;32049;52.346;4.870;2022-07-22T13:32:56;4.23;;;1.60;;
46330;SDS011;32049;52.346;4.870;2022-07-22T13:36:04;6.03;;;1.80;;
46330;SDS011;32049;52.346;4.870;2022-07-22T13:39:09;3.97;;;1.87;;
46330;SDS011;32049;52.346;4.870;2022-07-22T13:42:31;3.25;;;1.60;;
46330;SDS011;32049;52.346;4.870;2022-07-22T13:45:45;2.93;;;1.40;;
46330;SDS011;32049;52.346;4.870;2022-07-22T13:48:40;5.10;;;1.70;;
46330;SDS011;32049;52.346;4.870;2022-07-22T13:51:33;3.93;;;1.50;;
46330;SDS011;32049;52.346;4.870;2022-07-22T13:54:36;1.97;;;1.30;;
46330;SDS011;32049;52.346;4.870;2022-07-22T13:57:30;3.00;;;1.40;;
46330;SDS011;32049;52.346;4.870;2022-07-22T14:00:35;2.87;;;1.40;;
46330;SDS011;32049;52.346;4.870;2022-07-22T14:04:07;4.07;;;1.10;;
46330;SDS011;32049;52.346;4.870;2022-07-22T14:08:19;5.40;;;1.80;;
46330;SDS011;32049;52.346;4.870;2022-07-22T14:11:48;3.20;;;1.60;;
46330;SDS011;32049;52.346;4.870;2022-07-22T14:14:52;5.23;;;1.50;;
46330;SDS011;32049;52.346;4.870;2022-07-22T14:18:01;8.30;;;2.07;;
46330;SDS011;32049;52.346;4.870;2022-07-22T14:21:18;3.43;;;2.20;;
46330;SDS011;32049;52.346;4.870;2022-07-22T14:24:12;3.70;;;1.73;;
46330;SDS011;32049;52.346;4.870;2022-07-22T14:27:21;2.43;;;1.67;;
46330;SDS011;32049;52.346;4.870;2022-07-22T14:30:23;6.33;;;2.13;;
46330;SDS011;32049;52.346;4.870;2022-07-22T14:33:34;3.57;;;1.30;;
46330;SDS011;32049;52.346;4.870;2022-07-22T14:36:26;7.27;;;1.70;;
46330;SDS011;32049;52.346;4.870;2022-07-22T14:39:26;3.57;;;1.17;;
46330;SDS011;32049;52.346;4.870;2022-07-22T14:42:20;2.00;;;1.03;;
46330;SDS011;32049;52.346;4.870;2022-07-22T14:45:10;3.63;;;1.30;;
46330;SDS011;32049;52.346;4.870;2022-07-22T14:48:00;1.27;;;1.00;;
46330;SDS011;32049;52.346;4.870;2022-07-22T14:50:53;5.23;;;1.20;;
46330;SDS011;32049;52.346;4.870;2022-07-22T14:54:31;7.50;;;1.30;;
46330;SDS011;32049;52.346;4.870;2022-07-22T14:57:37;4.20;;;1.23;;
46330;SDS011;32049;52.346;4.870;2022-07-22T15:04:58;3.13;;;1.17;;
46330;SDS011;32049;52.346;4.870;2022-07-22T15:08:11;2.87;;;1.10;;
46330;SDS011;32049;52.346;4.870;2022-07-22T15:11:26;5.30;;;1.48;;
46330;SDS011;32049;52.346;4.870;2022-07-22T15:14:31;3.42;;;1.10;;
46330;SDS011;32049;52.346;4.870;2022-07-22T15:17:33;3.92;;;1.40;;
46330;SDS011;32049;52.346;4.870;2022-07-22T15:20:25;2.88;;;1.25;;
46330;SDS011;32049;52.346;4.870;2022-07-22T15:23:44;2.25;;;1.00;;
46330;SDS011;32049;52.346;4.870;2022-07-22T15:37:00;3.78;;;1.38;;
46330;SDS011;32049;52.346;4.870;2022-07-22T15:39:49;2.90;;;0.90;;
46330;SDS011;32049;52.346;4.870;2022-07-22T15:42:36;3.60;;;1.23;;
46330;SDS011;32049;52.346;4.870;2022-07-22T15:45:24;2.92;;;1.20;;
46330;SDS011;32049;52.346;4.870;2022-07-22T15:48:18;5.05;;;1.75;;
46330;SDS011;32049;52.346;4.870;2022-07-22T15:51:06;4.60;;;0.90;;
46330;SDS011;32049;52.346;4.870;2022-07-22T15:53:54;4.75;;;1.10;;
46330;SDS011;32049;52.346;4.870;2022-07-22T15:56:42;4.75;;;1.33;;
46330;SDS011;32049;52.346;4.870;2022-07-22T15:59:29;4.65;;;1.42;;
46330;SDS011;32049;52.346;4.870;2022-07-22T16:02:20;2.72;;;1.45;;
46330;SDS011;32049;52.346;4.870;2022-07-22T16:05:08;3.58;;;1.10;;
46330;SDS011;32049;52.346;4.870;2022-07-22T16:07:56;6.22;;;1.00;;
46330;SDS011;32049;52.346;4.870;2022-07-22T16:10:44;3.22;;;1.33;;
46330;SDS011;32049;52.346;4.870;2022-07-22T16:13:32;1.40;;;1.00;;
46330;SDS011;32049;52.346;4.870;2022-07-22T16:16:19;5.53;;;1.70;;
46330;SDS011;32049;52.346;4.870;2022-07-22T16:19:07;7.53;;;1.58;;
46330;SDS011;32049;52.346;4.870;2022-07-22T16:21:55;3.25;;;1.23;;
46330;SDS011;32049;52.346;4.870;2022-07-22T16:24:42;4.30;;;1.20;;
46330;SDS011;32049;52.346;4.870;2022-07-22T16:27:30;1.75;;;1.10;;
46330;SDS011;32049;52.346;4.870;2022-07-22T16:30:18;2.67;;;1.03;;
46330;SDS011;32049;52.346;4.870;2022-07-22T16:33:06;3.83;;;1.10;;
46330;SDS011;32049;52.346;4.870;2022-07-22T16:35:53;1.67;;;1.10;;
46330;SDS011;32049;52.346;4.870;2022-07-22T16:38:41;4.20;;;1.07;;
46330;SDS011;32049;52.346;4.870;2022-07-22T16:41:28;2.93;;;1.20;;
46330;SDS011;32049;52.346;4.870;2022-07-22T16:44:16;4.30;;;1.40;;
46330;SDS011;32049;52.346;4.870;2022-07-22T16:47:03;3.07;;;1.30;;
46330;SDS011;32049;52.346;4.870;2022-07-22T16:49:54;2.43;;;0.90;;
46330;SDS011;32049;52.346;4.870;2022-07-22T16:52:41;1.37;;;0.97;;
46330;SDS011;32049;52.346;4.870;2022-07-22T16:55:29;2.30;;;1.17;;
46330;SDS011;32049;52.346;4.870;2022-07-22T16:58:16;1.20;;;0.93;;
46330;SDS011;32049;52.346;4.870;2022-07-22T17:01:05;4.03;;;1.10;;
46330;SDS011;32049;52.346;4.870;2022-07-22T17:03:52;4.77;;;1.23;;
46330;SDS011;32049;52.346;4.870;2022-07-22T17:06:40;1.57;;;0.80;;
46330;SDS011;32049;52.346;4.870;2022-07-22T17:09:28;3.50;;;1.30;;
46330;SDS011;32049;52.346;4.870;2022-07-22T17:12:15;3.17;;;1.03;;
46330;SDS011;32049;52.346;4.870;2022-07-22T17:15:02;9.50;;;1.43;;
46330;SDS011;32049;52.346;4.870;2022-07-22T17:17:50;1.67;;;0.77;;
46330;SDS011;32049;52.346;4.870;2022-07-22T17:20:38;6.83;;;1.10;;
46330;SDS011;32049;52.346;4.870;2022-07-22T17:23:25;3.43;;;1.23;;
46330;SDS011;32049;52.346;4.870;2022-07-22T17:26:12;2.70;;;0.90;;
46330;SDS011;32049;52.346;4.870;2022-07-22T17:29:00;2.53;;;0.90;;
46330;SDS011;32049;52.346;4.870;2022-07-22T17:31:48;6.40;;;1.30;;
46330;SDS011;32049;52.346;4.870;2022-07-22T17:34:35;6.00;;;1.10;;
46330;SDS011;32049;52.346;4.870;2022-07-22T17:37:23;3.67;;;1.27;;
46330;SDS011;32049;52.346;4.870;2022-07-22T17:40:11;5.83;;;2.10;;
46330;SDS011;32049;52.346;4.870;2022-07-22T17:42:59;3.77;;;1.00;;
46330;SDS011;32049;52.346;4.870;2022-07-22T17:49:07;7.27;;;1.40;;
46330;SDS011;32049;52.346;4.870;2022-07-22T17:51:54;3.50;;;1.20;;
46330;SDS011;32049;52.346;4.870;2022-07-22T17:54:42;2.20;;;1.30;;
46330;SDS011;32049;52.346;4.870;2022-07-22T17:57:30;4.77;;;1.10;;
46330;SDS011;32049;52.346;4.870;2022-07-22T18:00:18;5.23;;;1.30;;
46330;SDS011;32049;52.346;4.870;2022-07-22T18:03:05;3.33;;;1.30;;
46330;SDS011;32049;52.346;4.870;2022-07-22T18:05:53;5.47;;;1.50;;
46330;SDS011;32049;52.346;4.870;2022-07-22T18:08:42;2.63;;;1.17;;
46330;SDS011;32049;52.346;4.870;2022-07-22T18:11:29;5.37;;;1.50;;